Flight Track Log - Related Links

Times and Time Zones

All times are in EST time to prevent confusion due to time zone crossing. See the FIN3269 flight status page for this flight to view local times or setup timezone preferences in your user account.

Time Position Orientation Groundspeed Altitude Reporting Facility
EST Latitude Longitude Course Direction KTS MPH feet Rate Location/Type
Sat 10:24:00 AM 59.9965 24.2845 227° Southwest  Level Estimated
Sat 10:25:00 AM 59.9158 24.1169 226° Southwest  Level Estimated
Sat 10:26:00 AM 59.8349 23.9500 226° Southwest  Level Estimated
Sat 10:27:00 AM 59.7538 23.7840 226° Southwest  Level Estimated
Sat 10:28:00 AM 59.6724 23.6188 226° Southwest  Level Estimated
Sat 10:29:00 AM 59.5909 23.4544 226° Southwest  Level Estimated
Sat 10:30:00 AM 59.5091 23.2908 225° Southwest  Level Estimated
Sat 10:31:00 AM 59.4272 23.1279 225° Southwest  Level Estimated
Sat 10:32:00 AM 59.3450 22.9659 225° Southwest  Level Estimated
Sat 10:33:00 AM 59.2626 22.8046 225° Southwest  Level Estimated
Sat 10:34:00 AM 59.1801 22.6441 225° Southwest  Level Estimated
Sat 10:35:00 AM 59.0973 22.4844 225° Southwest  Level Estimated
Sat 10:36:00 AM 59.0144 22.3255 225° Southwest  Level Estimated
Sat 10:37:00 AM 58.9313 22.1673 225° Southwest  Level Estimated
Sat 10:38:00 AM 58.8479 22.0099 224° Southwest  Level Estimated
Sat 10:39:00 AM 58.7644 21.8533 224° Southwest  Level Estimated
Sat 10:40:00 AM 58.6807 21.6974 224° Southwest  Level Estimated
Sat 10:41:00 AM 58.5968 21.5422 224° Southwest  Level Estimated
Sat 10:42:00 AM 58.5127 21.3878 224° Southwest  Level Estimated
Sat 10:43:00 AM 58.4284 21.2341 224° Southwest  Level Estimated
Sat 10:44:00 AM 58.3440 21.0812 224° Southwest  Level Estimated
Sat 10:45:00 AM 58.2593 20.9290 223° Southwest  Level Estimated
Sat 10:46:00 AM 58.1745 20.7775 223° Southwest  Level Estimated
Sat 10:47:00 AM 58.0895 20.6268 223° Southwest  Level Estimated
Sat 10:48:00 AM 58.0044 20.4767 223° Southwest  Level Estimated
Sat 10:49:00 AM 57.9190 20.3274 223° Southwest  Level Estimated
Sat 10:50:00 AM 57.8335 20.1788 223° Southwest  Level Estimated
Sat 10:51:00 AM 57.7478 20.0308 223° Southwest  Level Estimated
Sat 10:52:00 AM 57.6619 19.8836 223° Southwest  Level Estimated
Sat 10:53:00 AM 57.5759 19.7371 222° Southwest  Level Estimated
Sat 10:54:00 AM 57.4897 19.5913 222° Southwest  Level Estimated
Sat 10:55:00 AM 57.4033 19.4461 222° Southwest  Level Estimated
Sat 10:56:00 AM 57.3168 19.3017 222° Southwest  Level Estimated
Sat 10:57:00 AM 57.2301 19.1579 222° Southwest  Level Estimated
Sat 10:58:00 AM 57.1432 19.0148 222° Southwest  Level Estimated
Sat 10:59:00 AM 57.0562 18.8724 222° Southwest  Level Estimated
Sat 11:00:00 AM 56.9690 18.7306 222° Southwest  Level Estimated
Sat 11:01:00 AM 56.8816 18.5895 221° Southwest  Level Estimated
Sat 11:02:00 AM 56.7941 18.4491 221° Southwest  Level Estimated
Sat 11:03:00 AM 56.7065 18.3093 221° Southwest  Level Estimated
Sat 11:04:00 AM 56.6186 18.1702 221° Southwest  Level Estimated
Sat 11:05:00 AM 56.5307 18.0317 221° Southwest  Level Estimated
Sat 11:06:00 AM 56.4425 17.8938 221° Southwest  Level Estimated
Sat 11:07:00 AM 56.3543 17.7566 221° Southwest  Level Estimated
Sat 11:08:00 AM 56.2658 17.6200 221° Southwest  Level Estimated
Sat 11:09:00 AM 56.1772 17.4841 221° Southwest  Level Estimated
Sat 11:10:00 AM 56.0885 17.3488 220° Southwest  Level Estimated
Sat 11:11:00 AM 55.9996 17.2141 220° Southwest  Level Estimated
Sat 11:12:00 AM 55.9106 17.0800 220° Southwest  Level Estimated
Sat 11:13:00 AM 55.8214 16.9465 220° Southwest  Level Estimated
Sat 11:14:00 AM 55.7321 16.8137 220° Southwest  Level Estimated
Sat 11:15:00 AM 55.6427 16.6814 220° Southwest  Level Estimated
Sat 11:16:00 AM 55.5531 16.5498 220° Southwest  Level Estimated
Sat 11:17:00 AM 55.4633 16.4188 220° Southwest  Level Estimated
Sat 11:18:00 AM 55.3735 16.2883 220° Southwest  Level Estimated
Sat 11:19:00 AM 55.2835 16.1584 219° Southwest  Level Estimated
Sat 11:20:00 AM 55.1933 16.0292 219° Southwest  Level Estimated
Sat 11:21:00 AM 55.1030 15.9005 219° Southwest  Level Estimated
Sat 11:22:00 AM 55.0126 15.7724 219° Southwest  Level Estimated
Sat 11:23:00 AM 54.9220 15.6449 219° Southwest  Level Estimated
Sat 11:24:00 AM 54.8313 15.5179 219° Southwest  Level Estimated
Sat 11:25:00 AM 54.7405 15.3915 219° Southwest  Level Estimated
Sat 11:26:00 AM 54.6496 15.2657 219° Southwest  Level Estimated
Sat 11:27:00 AM 54.5585 15.1405 219° Southwest  Level Estimated
Sat 11:28:00 AM 54.4673 15.0158 218° Southwest  Level Estimated
Sat 11:29:00 AM 54.3759 14.8916 218° Southwest  Level Estimated
Sat 11:30:00 AM 54.2845 14.7680 218° Southwest  Level Estimated
Sat 11:31:00 AM 54.1929 14.6450 218° Southwest  Level Estimated
Sat 11:32:00 AM 54.1012 14.5225 218° Southwest  Level Estimated
Sat 11:33:00 AM 54.0093 14.4005 218° Southwest  Level Estimated
Sat 11:34:00 AM 53.9174 14.2791 218° Southwest  Level Estimated
Sat 11:35:00 AM 53.8253 14.1582 218° Southwest  Level Estimated
Sat 11:36:00 AM 53.7331 14.0379 218° Southwest  Level Estimated
Sat 11:37:00 AM 53.6408 13.9180 218° Southwest  Level Estimated
Sat 11:38:00 AM 53.5483 13.7987 217° Southwest  Level Estimated
Sat 11:39:00 AM 53.4557 13.6800 217° Southwest  Level Estimated
Sat 11:40:00 AM 53.3631 13.5617 217° Southwest  Level Estimated
Sat 11:41:00 AM 53.2703 13.4439 217° Southwest  Level Estimated
Sat 11:42:00 AM 53.1774 13.3267 217° Southwest  Level Estimated
Sat 11:43:00 AM 53.0843 13.2100 217° Southwest  Level Estimated
Sat 11:44:00 AM 52.9912 13.0938 217° Southwest  Level Estimated
Sat 11:45:00 AM 52.8979 12.9780 217° Southwest  Level Estimated
Sat 11:46:00 AM 52.8046 12.8628 217° Southwest  Level Estimated
Sat 11:47:00 AM 52.7111 12.7480 217° Southwest  Level Estimated
Sat 11:48:00 AM 52.6175 12.6338 217° Southwest  Level Estimated
Sat 11:49:00 AM 52.5238 12.5200 216° Southwest  Level Estimated
Sat 11:50:00 AM 52.4300 12.4068 216° Southwest  Level Estimated
Sat 11:51:00 AM 52.3361 12.2940 216° Southwest  Level Estimated
Sat 11:52:00 AM 52.2421 12.1817 216° Southwest  Level Estimated
Sat 11:53:00 AM 52.1479 12.0698 216° Southwest  Level Estimated
Sat 11:54:00 AM 52.0537 11.9584 216° Southwest  Level Estimated
Sat 11:55:00 AM 51.9594 11.8475 216° Southwest  Level Estimated
Sat 11:56:00 AM 51.8649 11.7371 216° Southwest  Level Estimated
Sat 11:57:00 AM 51.7704 11.6271 216° Southwest  Level Estimated
Sat 11:58:00 AM 51.6758 11.5176 216° Southwest  Level Estimated
Sat 11:59:00 AM 51.5810 11.4086 216° Southwest  Level Estimated
Sat 12:00:00 PM 51.4862 11.3000 216° Southwest  Level Estimated
Sat 12:01:00 PM 51.3912 11.1918 215° Southwest  Level Estimated
Sat 12:02:00 PM 51.2962 11.0841 215° Southwest  Level Estimated
Sat 12:03:00 PM 51.2010 10.9769 215° Southwest  Level Estimated
Sat 12:04:00 PM 51.1058 10.8701 215° Southwest  Level Estimated
Sat 12:05:00 PM 51.0105 10.7637 215° Southwest  Level Estimated
Sat 12:06:00 PM 50.9150 10.6578 215° Southwest  Level Estimated
Sat 12:07:00 PM 50.8195 10.5522 215° Southwest  Level Estimated
Sat 12:08:00 PM 50.7239 10.4472 215° Southwest  Level Estimated
Sat 12:09:00 PM 50.6282 10.3425 215° Southwest  Level Estimated
Sat 12:10:00 PM 50.5323 10.2383 215° Southwest  Level Estimated
Sat 12:11:00 PM 50.4365 10.1345 215° Southwest  Level Estimated
Sat 12:12:00 PM 50.3405 10.0311 215° Southwest  Level Estimated
Sat 12:13:00 PM 50.2444 9.9282 214° Southwest  Level Estimated
Sat 12:14:00 PM 50.1482 9.8256 214° Southwest  Level Estimated
Sat 12:15:00 PM 50.0519 9.7235 214° Southwest  Level Estimated
Sat 12:16:00 PM 49.9556 9.6218 214° Southwest  Level Estimated
Sat 12:17:00 PM 49.8591 9.5205 214° Southwest  Level Estimated
Sat 12:18:00 PM 49.7626 9.4196 214° Southwest  Level Estimated
Sat 12:19:00 PM 49.6660 9.3190 214° Southwest  Level Estimated
Sat 12:20:00 PM 49.5692 9.2189 214° Southwest  Level Estimated
Sat 12:21:00 PM 49.4725 9.1192 214° Southwest  Level Estimated
Sat 12:22:00 PM 49.3756 9.0199 214° Southwest  Level Estimated
Sat 12:23:00 PM 49.2786 8.9210 214° Southwest  Level Estimated
Sat 12:24:00 PM 49.1816 8.8224 214° Southwest  Level Estimated
Sat 12:25:00 PM 49.0844 8.7243 214° Southwest  Level Estimated
Sat 12:26:00 PM 48.9872 8.6265 213° Southwest  Level Estimated
Sat 12:27:00 PM 48.8899 8.5291 213° Southwest  Level Estimated
Sat 12:28:00 PM 48.7925 8.4321 213° Southwest  Level Estimated
Sat 12:29:00 PM 48.6951 8.3355 213° Southwest  Level Estimated
Sat 12:30:00 PM 48.5975 8.2392 213° Southwest  Level Estimated
Sat 12:31:00 PM 48.4999 8.1433 213° Southwest  Level Estimated
Sat 12:32:00 PM 48.4022 8.0478 213° Southwest  Level Estimated
Sat 12:33:00 PM 48.3044 7.9526 213° Southwest  Level Estimated
Sat 12:34:00 PM 48.2066 7.8578 213° Southwest  Level Estimated
Sat 12:35:00 PM 48.1087 7.7634 213° Southwest  Level Estimated
Sat 12:36:00 PM 48.0106 7.6693 213° Southwest  Level Estimated
Sat 12:37:00 PM 47.9126 7.5756 213° Southwest  Level Estimated
Sat 12:38:00 PM 47.8144 7.4822 213° Southwest  Level Estimated
Sat 12:39:00 PM 47.7161 7.3892 213° Southwest  Level Estimated
Sat 12:40:00 PM 47.6178 7.2965 212° Southwest  Level Estimated
Sat 12:41:00 PM 47.5195 7.2042 212° Southwest  Level Estimated
Sat 12:42:00 PM 47.4210 7.1123 212° Southwest  Level Estimated
Sat 12:43:00 PM 47.3225 7.0206 212° Southwest  Level Estimated
Sat 12:44:00 PM 47.2239 6.9294 212° Southwest  Level Estimated
Sat 12:45:00 PM 47.1252 6.8384 212° Southwest  Level Estimated
Sat 12:46:00 PM 47.0264 6.7478 212° Southwest  Level Estimated
Sat 12:47:00 PM 46.9276 6.6575 212° Southwest  Level Estimated
Sat 12:48:00 PM 46.8287 6.5676 212° Southwest  Level Estimated
Sat 12:49:00 PM 46.7298 6.4780 212° Southwest  Level Estimated
Sat 12:50:00 PM 46.6307 6.3887 212° Southwest  Level Estimated
Sat 12:51:00 PM 46.5316 6.2998 212° Southwest  Level Estimated
Sat 12:52:00 PM 46.4324 6.2111 212° Southwest  Level Estimated
Sat 12:53:00 PM 46.3332 6.1228 212° Southwest  Level Estimated
Sat 12:54:00 PM 46.2339 6.0348 212° Southwest  Level Estimated
Sat 12:55:00 PM 46.1345 5.9472 211° Southwest  Level Estimated
Sat 12:56:00 PM 46.0351 5.8598 211° Southwest  Level Estimated
Sat 12:57:00 PM 45.9361 5.7732 211° Southwest  Level Estimated
Sat 12:58:00 PM 45.8370 5.6869 211° Southwest  Level Estimated
Sat 12:59:00 PM 45.7378 5.6009 211° Southwest  Level Estimated
Sat 01:00:00 PM 45.6386 5.5152 211° Southwest  Level Estimated
Sat 01:01:00 PM 45.5393 5.4298 211° Southwest  Level Estimated
Sat 01:02:00 PM 45.4400 5.3447 211° Southwest  Level Estimated
Sat 01:03:00 PM 45.3406 5.2600 211° Southwest  Level Estimated
Sat 01:04:00 PM 45.2411 5.1755 211° Southwest  Level Estimated
Sat 01:05:00 PM 45.1416 5.0913 211° Southwest  Level Estimated
Sat 01:06:00 PM 45.0420 5.0074 211° Southwest  Level Estimated
Sat 01:07:00 PM 44.9424 4.9237 211° Southwest  Level Estimated
Sat 01:08:00 PM 44.8427 4.8404 211° Southwest  Level Estimated
Sat 01:09:00 PM 44.7429 4.7574 211° Southwest  Level Estimated
Sat 01:10:00 PM 44.6431 4.6747 211° Southwest  Level Estimated
Sat 01:11:00 PM 44.5432 4.5922 210° Southwest  Level Estimated
Sat 01:12:00 PM 44.4432 4.5100 210° Southwest  Level Estimated
Sat 01:13:00 PM 44.3432 4.4281 210° Southwest  Level Estimated
Sat 01:14:00 PM 44.2431 4.3465 210° Southwest  Level Estimated
Sat 01:15:00 PM 44.1430 4.2652 210° Southwest  Level Estimated
Sat 01:16:00 PM 44.0428 4.1841 210° Southwest  Level Estimated
Sat 01:17:00 PM 43.9426 4.1033 210° Southwest  Level Estimated
Sat 01:18:00 PM 43.8423 4.0228 210° Southwest  Level Estimated
Sat 01:19:00 PM 43.7419 3.9425 210° Southwest  Level Estimated
Sat 01:20:00 PM 43.6415 3.8625 210° Southwest  Level Estimated
Sat 01:21:00 PM 43.5411 3.7828 210° Southwest  Level Estimated
Sat 01:22:00 PM 43.4405 3.7034 210° Southwest  Level Estimated
Sat 01:23:00 PM 43.3400 3.6242 210° Southwest  Level Estimated
Sat 01:24:00 PM 43.2393 3.5453 210° Southwest  Level Estimated
Sat 01:25:00 PM 43.1386 3.4666 210° Southwest  Level Estimated
Sat 01:26:00 PM 43.0379 3.3882 210° Southwest  Level Estimated
Sat 01:27:00 PM 42.9371 3.3100 210° Southwest  Level Estimated
Sat 01:28:00 PM 42.8363 3.2322 210° Southwest  Level Estimated
Sat 01:29:00 PM 42.7354 3.1545 209° Southwest  Level Estimated
Sat 01:30:00 PM 42.6344 3.0771 209° Southwest  Level Estimated
Sat 01:31:00 PM 42.5334 3.0000 209° Southwest  Level Estimated
Sat 01:32:00 PM 42.4324 2.9231 209° Southwest  Level Estimated
Sat 01:33:00 PM 42.3313 2.8465 209° Southwest  Level Estimated
Sat 01:34:00 PM 42.2301 2.7701 209° Southwest  Level Estimated
Sat 01:35:00 PM 42.1289 2.6939 209° Southwest  Level Estimated
Sat 01:36:00 PM 42.0276 2.6180 209° Southwest  Level Estimated
Sat 01:37:00 PM 41.9263 2.5423 209° Southwest  Level Estimated
Sat 01:38:00 PM 41.8250 2.4669 209° Southwest  Level Estimated
Sat 01:39:00 PM 41.7236 2.3917 209° Southwest  Level Estimated
Sat 01:40:00 PM 41.6221 2.3168 209° Southwest  Level Estimated
Sat 01:41:00 PM 41.5206 2.2421 209° Southwest  Level Estimated
Sat 01:42:00 PM 41.4191 2.1676 209° Southwest  Level Estimated
Sat 01:43:00 PM 41.3175 2.0933 209° Southwest  Level Estimated
Sat 01:44:00 PM 41.2971 2.0785 209° Southwest  Level Estimated
Sat 01:45:00 PM 41.2971 2.0785 124° Southeast  Level Estimated
Sat 01:46:00 PM 41.2971 2.0785 124° Southeast  Level Estimated
Sat 01:47:00 PM 41.2971 2.0785 124° Southeast  Level Estimated
Sat 01:48:00 PM 41.2971 2.0785 124° Southeast  Level Estimated
Sat 01:49:00 PM 41.2971 2.0785 124° Southeast  Level Estimated
Sat 01:50:00 PM 41.2971 2.0785 124° Southeast  Level Estimated
Sat 01:51:00 PM 41.2971 2.0785 124° Southeast  Level Estimated
Sat 01:52:00 PM 41.2971 2.0785 124° Southeast  Level Estimated
Sat 01:53:00 PM 41.2971 2.0785 124° Southeast  Level Estimated
Sat 01:54:00 PM 41.2971 2.0785 124° Southeast  Level Estimated
Sat 01:55:00 PM 41.2971 2.0785 124° Southeast  Level Estimated
Sat 01:56:00 PM 41.2971 2.0785 124° Southeast  Level Estimated
Sat 01:57:00 PM 41.2971 2.0785 124° Southeast  Level Estimated
Sat 01:58:00 PM 41.2971 2.0785 124° Southeast  Level Estimated
Sat 01:59:00 PM 41.2971 2.0785 124° Southeast  Level Estimated
Sat 02:00:00 PM 41.2971 2.0785 124° Southeast  Level Estimated
Sat 02:01:00 PM 41.2971 2.0785 124° Southeast  Level Estimated

Login

Don't have an account? Register now (free) for customized features, flight alerts, and more!